Time;durP1;ratioP1;P1;durP2;ratioP2;P2;SDS_P1;SDS_P2;PMS_P1;PMS_P2;Temp;Humidity;BMP_temperature;BMP_pressure;BME280_temperature;BME280_humidity;BME280_pressure;Samples;Min_cycle;Max_cycle;Signal;HPM_P1;HPM_P2
2022/04/15 05:00:10;;;;;;;4.33;3.93;;;13.70;97.20;;;;;;1688016;29;20240;-75
2022/04/15 05:01:01;;;;;;;5.20;4.70;;;13.70;97.20;;;;;;1687865;29;20241;-75
2022/04/15 05:01:53;;;;;;;6.03;3.93;;;13.80;97.20;;;;;;1688008;29;20204;-75
2022/04/15 05:02:45;;;;;;;4.88;4.38;;;13.80;97.20;;;;;;1687693;29;20262;-75
2022/04/15 05:03:36;;;;;;;4.80;4.13;;;13.80;97.20;;;;;;1687837;29;20208;-75
2022/04/15 05:04:27;;;;;;;4.32;3.92;;;13.80;97.20;;;;;;1687733;29;20204;-75
2022/04/15 05:05:19;;;;;;;4.60;4.00;;;13.80;97.20;;;;;;1687434;29;20200;-75
2022/04/15 05:06:09;;;;;;;5.68;4.00;;;13.80;97.20;;;;;;1687811;29;20725;-75
2022/04/15 05:07:01;;;;;;;4.10;3.70;;;13.80;97.20;;;;;;1687997;29;20201;-75
2022/04/15 05:07:52;;;;;;;4.97;4.07;;;13.90;97.20;;;;;;1687879;29;20240;-75
2022/04/15 05:08:43;;;;;;;4.60;4.20;;;13.90;97.20;;;;;;1687588;29;20213;-75
2022/04/15 05:09:34;;;;;;;5.38;3.90;;;13.90;97.20;;;;;;1687749;29;20208;-75
2022/04/15 05:10:26;;;;;;;4.30;3.63;;;13.90;97.20;;;;;;1687662;29;20212;-75
2022/04/15 05:11:17;;;;;;;4.25;3.95;;;13.90;97.20;;;;;;1687839;29;20211;-75
2022/04/15 05:12:10;;;;;;;5.80;3.80;;;13.90;97.20;;;;;;1687831;29;20204;-74
2022/04/15 05:13:00;;;;;;;5.00;4.20;;;13.90;97.20;;;;;;1687128;29;20267;-74
2022/04/15 05:13:52;;;;;;;3.83;3.53;;;13.90;97.20;;;;;;1687318;29;20256;-74
2022/04/15 05:14:43;;;;;;;4.25;3.70;;;13.90;97.20;;;;;;1687622;29;20240;-74
2022/04/15 05:15:36;;;;;;;4.10;3.80;;;14.00;97.20;;;;;;1687867;29;20211;-75
2022/04/15 05:16:26;;;;;;;5.00;4.20;;;14.00;97.20;;;;;;1687858;29;20211;-75
2022/04/15 05:17:18;;;;;;;4.60;3.83;;;14.00;97.20;;;;;;1687937;29;20201;-75
2022/04/15 05:18:09;;;;;;;4.25;3.85;;;14.00;97.20;;;;;;1688709;29;20489;-75
2022/04/15 05:19:01;;;;;;;3.93;3.63;;;14.00;97.20;;;;;;1687700;29;20196;-78
2022/04/15 05:19:51;;;;;;;6.75;3.88;;;14.00;97.20;;;;;;1687061;29;20697;-75
2022/04/15 05:20:43;;;;;;;4.33;4.00;;;14.00;97.20;;;;;;1687651;29;20223;-75
2022/04/15 05:21:35;;;;;;;4.05;3.65;;;14.10;97.20;;;;;;1687795;29;20204;-75
2022/04/15 05:22:27;;;;;;;4.75;4.32;;;14.10;97.20;;;;;;1687690;29;20219;-75
2022/04/15 05:23:19;;;;;;;4.45;4.03;;;14.10;97.20;;;;;;1687694;29;20207;-76
2022/04/15 05:24:12;;;;;;;6.00;4.15;;;14.10;97.20;;;;;;1687763;29;20696;-74
2022/04/15 05:25:05;;;;;;;4.35;4.05;;;14.10;97.20;;;;;;1687773;29;20276;-75
2022/04/15 05:25:57;;;;;;;3.83;3.53;;;14.10;97.20;;;;;;1687568;29;20676;-74
2022/04/15 05:26:47;;;;;;;3.92;3.55;;;14.20;97.20;;;;;;1687738;29;20239;-74
2022/04/15 05:27:39;;;;;;;5.40;4.00;;;14.20;97.20;;;;;;1687758;29;20212;-74
2022/04/15 05:28:31;;;;;;;4.10;3.65;;;14.20;97.20;;;;;;1687370;29;20208;-74
2022/04/15 05:29:23;;;;;;;5.38;3.60;;;14.20;97.20;;;;;;1687695;29;20200;-74
2022/04/15 05:30:14;;;;;;;4.57;4.00;;;14.20;97.20;;;;;;1687753;29;20703;-74
2022/04/15 05:31:07;;;;;;;5.53;4.10;;;14.20;97.20;;;;;;1687745;29;20685;-75
2022/04/15 05:31:57;;;;;;;4.18;3.78;;;14.20;97.20;;;;;;1687792;29;20243;-74
2022/04/15 05:32:49;;;;;;;3.77;3.47;;;14.20;97.20;;;;;;1687710;29;20215;-75
2022/04/15 05:33:40;;;;;;;4.85;3.88;;;14.20;97.20;;;;;;1683244;29;20232;-74
2022/04/15 05:34:31;;;;;;;3.67;3.37;;;14.30;97.20;;;;;;1685607;29;20211;-74
2022/04/15 05:35:22;;;;;;;3.95;3.55;;;14.30;97.20;;;;;;1681188;29;20308;-74
2022/04/15 05:36:14;;;;;;;4.13;3.73;;;14.30;97.20;;;;;;1685974;29;20196;-74
2022/04/15 05:37:05;;;;;;;3.67;3.17;;;14.40;97.20;;;;;;1687696;29;20449;-74
2022/04/15 05:37:57;;;;;;;3.93;3.63;;;14.40;97.20;;;;;;1687688;29;20200;-74
2022/04/15 05:38:48;;;;;;;3.53;3.33;;;14.40;97.20;;;;;;1687361;29;20230;-75
2022/04/15 05:39:39;;;;;;;4.63;4.00;;;14.40;97.20;;;;;;1687595;29;20204;-74
2022/04/15 05:40:30;;;;;;;3.90;3.25;;;14.50;97.20;;;;;;1687562;29;20279;-75
2022/04/15 05:41:22;;;;;;;3.97;3.60;;;14.50;97.20;;;;;;1687746;29;20200;-74
2022/04/15 05:42:13;;;;;;;4.30;3.88;;;14.50;97.20;;;;;;1687067;29;20212;-74
2022/04/15 05:43:05;;;;;;;4.27;3.87;;;14.60;97.20;;;;;;1687755;29;20295;-75
2022/04/15 05:43:57;;;;;;;5.03;4.45;;;14.60;97.20;;;;;;1687639;29;20685;-75
2022/04/15 05:44:49;;;;;;;5.82;4.55;;;14.60;97.20;;;;;;1687625;29;20204;-75
2022/04/15 05:45:40;;;;;;;4.43;4.03;;;14.60;97.20;;;;;;1687683;29;20216;-76
2022/04/15 05:46:33;;;;;;;3.90;3.50;;;14.60;97.20;;;;;;1686957;29;20204;-74
2022/04/15 05:47:23;;;;;;;4.75;4.32;;;14.60;97.20;;;;;;1687631;29;20582;-75
2022/04/15 05:48:15;;;;;;;5.10;4.47;;;14.70;97.20;;;;;;1687268;29;20624;-75
2022/04/15 05:49:13;;;;;;;4.65;4.15;;;14.70;97.20;;;;;;1687561;29;20212;-75
2022/04/15 05:50:05;;;;;;;4.65;4.25;;;14.70;97.20;;;;;;1687466;29;20299;-75
2022/04/15 05:50:57;;;;;;;6.20;4.63;;;14.70;97.20;;;;;;1687580;29;20224;-75
2022/04/15 05:51:48;;;;;;;4.30;4.00;;;14.80;97.20;;;;;;1687539;29;20200;-75
2022/04/15 05:52:39;;;;;;;5.03;4.53;;;14.80;97.20;;;;;;1687662;29;20212;-75
2022/04/15 05:53:32;;;;;;;4.40;4.10;;;14.80;97.20;;;;;;1687615;29;20213;-75
2022/04/15 05:54:22;;;;;;;4.55;4.15;;;14.90;97.20;;;;;;1687631;29;20212;-75
2022/04/15 05:55:14;;;;;;;4.50;4.10;;;14.90;97.20;;;;;;1687606;29;20208;-75
2022/04/15 05:56:05;;;;;;;4.43;4.00;;;15.00;97.20;;;;;;1686627;29;20622;-75
2022/04/15 05:56:57;;;;;;;4.93;4.47;;;15.00;97.20;;;;;;1681149;29;20205;-75
2022/04/15 05:57:48;;;;;;;4.60;3.90;;;15.00;97.20;;;;;;1681139;29;20212;-75
2022/04/15 05:58:40;;;;;;;4.80;4.37;;;15.10;97.20;;;;;;1680949;29;20205;-75
2022/04/15 05:59:31;;;;;;;4.60;4.18;;;15.10;97.20;;;;;;1681084;29;20212;-75
2022/04/15 06:00:23;;;;;;;4.90;4.50;;;15.10;97.20;;;;;;1680989;29;20211;-75
2022/04/15 06:01:13;;;;;;;5.20;4.70;;;15.20;97.20;;;;;;1681153;29;20212;-75
2022/04/15 06:02:06;;;;;;;4.93;4.53;;;15.20;97.20;;;;;;1681236;29;20280;-75
2022/04/15 06:02:57;;;;;;;6.22;4.38;;;15.20;97.20;;;;;;1681285;29;20209;-75
2022/04/15 06:03:49;;;;;;;5.30;4.60;;;15.30;97.20;;;;;;1681169;29;20223;-75
2022/04/15 06:04:40;;;;;;;7.88;4.35;;;15.30;97.20;;;;;;1681259;29;20205;-74
2022/04/15 06:05:31;;;;;;;5.30;4.90;;;15.30;97.20;;;;;;1681066;29;20240;-74
2022/04/15 06:06:22;;;;;;;4.50;4.03;;;15.30;97.20;;;;;;1683576;29;20261;-75
2022/04/15 06:07:14;;;;;;;4.97;4.57;;;15.40;97.20;;;;;;1687246;29;20208;-74
2022/04/15 06:08:05;;;;;;;4.95;4.50;;;15.40;97.20;;;;;;1687243;29;20216;-74
2022/04/15 06:08:57;;;;;;;5.65;4.72;;;15.50;97.20;;;;;;1687591;29;20627;-75
2022/04/15 06:09:47;;;;;;;5.30;4.78;;;15.50;97.20;;;;;;1687485;29;20211;-74
2022/04/15 06:10:39;;;;;;;5.47;4.97;;;15.60;97.20;;;;;;1687518;29;20220;-75
2022/04/15 06:11:30;;;;;;;5.50;4.90;;;15.60;97.20;;;;;;1687545;29;20653;-75
2022/04/15 06:12:24;;;;;;;5.33;4.87;;;15.60;97.20;;;;;;1687658;29;20200;-75
2022/04/15 06:13:19;;;;;;;5.40;4.68;;;15.70;97.20;;;;;;1687495;29;20457;-75
2022/04/15 06:14:11;;;;;;;5.50;5.10;;;15.70;97.20;;;;;;1687592;29;20215;-74
2022/04/15 06:15:03;;;;;;;6.28;5.68;;;15.80;97.20;;;;;;1687613;29;20208;-75
2022/04/15 06:15:56;;;;;;;8.23;6.10;;;15.90;97.20;;;;;;1687487;29;20227;-75
2022/04/15 06:16:46;;;;;;;5.97;5.38;;;15.90;97.20;;;;;;1681659;29;20209;-77
2022/04/15 06:17:39;;;;;;;5.17;4.73;;;15.90;97.20;;;;;;1681202;29;20209;-76
2022/04/15 06:18:34;;;;;;;5.75;5.25;;;16.00;97.20;;;;;;1680721;29;20719;-76
2022/04/15 06:19:25;;;;;;;6.70;6.13;;;16.00;97.20;;;;;;1681108;29;20248;-76
2022/04/15 06:20:17;;;;;;;8.83;6.40;;;16.10;97.20;;;;;;1681033;29;20209;-76
2022/04/15 06:21:08;;;;;;;7.80;6.53;;;16.10;97.20;;;;;;1681064;29;20285;-76
2022/04/15 06:22:00;;;;;;;7.03;6.33;;;16.10;97.20;;;;;;1681188;29;20205;-75
2022/04/15 06:22:50;;;;;;;6.45;5.90;;;16.20;97.20;;;;;;1681005;29;20232;-76
2022/04/15 06:23:42;;;;;;;6.73;6.03;;;16.20;97.20;;;;;;1681281;29;20212;-77
2022/04/15 06:24:34;;;;;;;6.70;6.03;;;16.20;97.20;;;;;;1683947;29;20491;-76
2022/04/15 06:25:26;;;;;;;6.25;5.65;;;16.30;97.20;;;;;;1687287;29;20529;-77
2022/04/15 06:26:17;;;;;;;7.63;6.07;;;16.40;97.20;;;;;;1685621;29;20236;-77
2022/04/15 06:27:09;;;;;;;6.43;5.87;;;16.40;97.20;;;;;;1681081;29;20205;-77
2022/04/15 06:28:00;;;;;;;6.78;5.38;;;16.50;97.20;;;;;;1681087;29;20216;-77
2022/04/15 06:28:52;;;;;;;5.80;5.40;;;16.50;97.20;;;;;;1680875;29;20697;-77
2022/04/15 06:29:43;;;;;;;6.53;5.78;;;16.60;97.20;;;;;;1681024;29;20212;-77
2022/04/15 06:30:35;;;;;;;6.70;5.97;;;16.60;97.20;;;;;;1681061;29;20693;-77
2022/04/15 06:31:26;;;;;;;6.93;6.32;;;16.60;97.20;;;;;;1681069;29;20236;-77
2022/04/15 06:32:17;;;;;;;6.65;5.95;;;16.60;97.20;;;;;;1681055;29;20695;-76
2022/04/15 06:33:10;;;;;;;8.07;6.38;;;16.70;97.20;;;;;;1681092;29;20216;-77
2022/04/15 06:34:01;;;;;;;7.70;6.75;;;16.70;97.20;;;;;;1681137;29;20208;-77
2022/04/15 06:34:52;;;;;;;6.53;5.97;;;16.70;97.20;;;;;;1686179;29;20224;-77
2022/04/15 06:35:44;;;;;;;6.40;5.80;;;16.70;97.20;;;;;;1686248;29;20197;-76
2022/04/15 06:36:34;;;;;;;8.15;7.13;;;16.70;97.20;;;;;;1687245;29;20208;-77
2022/04/15 06:37:26;;;;;;;6.77;6.17;;;16.80;97.20;;;;;;1687060;29;20216;-77
2022/04/15 06:38:17;;;;;;;10.32;6.78;;;16.80;97.20;;;;;;1686643;29;20209;-77
2022/04/15 06:39:09;;;;;;;7.10;6.50;;;16.80;97.20;;;;;;1686376;29;20283;-77
2022/04/15 06:40:00;;;;;;;7.32;6.72;;;16.80;97.20;;;;;;1685489;29;20899;-77
2022/04/15 06:40:52;;;;;;;6.53;5.83;;;16.80;97.20;;;;;;1688426;29;20229;-77
2022/04/15 06:41:44;;;;;;;7.03;6.43;;;16.90;97.20;;;;;;1688611;29;20224;-77
2022/04/15 06:42:36;;;;;;;6.90;6.25;;;16.90;97.20;;;;;;1693740;29;20663;-77
2022/04/15 06:43:27;;;;;;;6.47;5.45;;;17.00;97.20;;;;;;1687534;29;20205;-77
2022/04/15 06:44:18;;;;;;;10.47;6.40;;;17.00;97.20;;;;;;1690260;29;20275;-77
2022/04/15 06:45:11;;;;;;;6.10;5.50;;;17.00;97.20;;;;;;1687161;29;20451;-77
2022/04/15 06:46:03;;;;;;;6.63;6.03;;;17.10;97.20;;;;;;1687251;29;20295;-77
2022/04/15 06:46:54;;;;;;;7.90;7.10;;;17.20;97.20;;;;;;1687294;29;20209;-77
2022/04/15 06:47:45;;;;;;;7.50;6.37;;;17.20;97.20;;;;;;1687072;29;20208;-77
2022/04/15 06:48:38;;;;;;;7.32;6.63;;;17.30;97.20;;;;;;1686277;29;20216;-77
2022/04/15 06:49:29;;;;;;;7.50;6.13;;;17.40;97.20;;;;;;1686527;29;20208;-77
2022/04/15 06:50:20;;;;;;;7.05;6.45;;;17.50;97.20;;;;;;1687039;29;20272;-77
2022/04/15 06:51:12;;;;;;;8.50;6.60;;;17.50;97.20;;;;;;1687267;29;20219;-77
2022/04/15 06:52:03;;;;;;;7.20;6.55;;;17.60;97.20;;;;;;1687457;29;21203;-77
2022/04/15 06:52:55;;;;;;;7.93;7.13;;;17.70;97.20;;;;;;1690190;29;20199;-76
2022/04/15 06:53:47;;;;;;;8.18;7.05;;;17.70;97.20;;;;;;1689783;29;20239;-77
2022/04/15 06:54:38;;;;;;;9.73;6.20;;;17.80;97.20;;;;;;1687684;29;20201;-77
2022/04/15 06:55:29;;;;;;;8.40;6.70;;;17.90;97.20;;;;;;1688422;29;20207;-77
2022/04/15 06:56:20;;;;;;;10.63;6.85;;;17.90;97.20;;;;;;1688384;29;20474;-76
2022/04/15 06:57:12;;;;;;;8.53;7.10;;;18.00;97.20;;;;;;1688476;29;20255;-77
2022/04/15 06:58:02;;;;;;;7.53;6.93;;;18.00;97.20;;;;;;1688071;29;20205;-77
2022/04/15 06:58:54;;;;;;;7.00;6.30;;;18.00;97.20;;;;;;1688344;29;20205;-77
2022/04/15 06:59:45;;;;;;;7.68;6.97;;;18.10;97.20;;;;;;1688386;29;20215;-77
2022/04/15 07:00:37;;;;;;;8.87;8.07;;;18.10;97.20;;;;;;1691053;29;20315;-77
2022/04/15 07:01:29;;;;;;;7.82;6.95;;;18.10;97.20;;;;;;1695019;29;20639;-77
2022/04/15 07:02:21;;;;;;;9.75;8.50;;;18.10;97.20;;;;;;1694987;29;20287;-77
2022/04/15 07:03:12;;;;;;;8.27;7.55;;;18.20;97.20;;;;;;1694948;29;20204;-77
2022/04/15 07:04:06;;;;;;;7.80;7.10;;;18.20;97.20;;;;;;1694994;29;20321;-77
2022/04/15 07:04:56;;;;;;;10.63;7.80;;;18.20;97.20;;;;;;1686856;29;20288;-77
2022/04/15 07:05:48;;;;;;;7.63;7.03;;;18.20;97.20;;;;;;1682085;29;20205;-77
2022/04/15 07:06:39;;;;;;;8.65;7.22;;;18.20;97.20;;;;;;1681898;29;20263;-77
2022/04/15 07:07:30;;;;;;;7.93;6.90;;;18.30;97.20;;;;;;1681941;29;20208;-77
2022/04/15 07:08:21;;;;;;;7.88;7.00;;;18.30;97.20;;;;;;1681607;29;20220;-77
2022/04/15 07:09:15;;;;;;;8.63;7.30;;;18.40;97.20;;;;;;1685096;29;20235;-77
2022/04/15 07:10:08;;;;;;;10.40;7.60;;;18.40;97.20;;;;;;1688542;29;20239;-77
2022/04/15 07:11:00;;;;;;;7.40;6.80;;;18.50;97.20;;;;;;1688155;29;20251;-78
2022/04/15 07:11:53;;;;;;;9.32;8.48;;;18.60;97.20;;;;;;1688282;29;20209;-77
2022/04/15 07:12:44;;;;;;;9.50;8.13;;;18.70;97.20;;;;;;1688369;29;20204;-78
2022/04/15 07:13:35;;;;;;;10.45;9.35;;;18.80;97.20;;;;;;1688338;29;20334;-77
2022/04/15 07:14:29;;;;;;;12.40;11.20;;;18.90;97.20;;;;;;1687536;29;20341;-77
2022/04/15 07:15:20;;;;;;;12.90;10.95;;;19.10;97.20;;;;;;1688292;29;20290;-77
2022/04/15 07:16:13;;;;;;;11.63;10.23;;;19.20;97.20;;;;;;1688299;29;20226;-77
2022/04/15 07:17:04;;;;;;;11.82;10.48;;;19.30;97.20;;;;;;1688567;29;20204;-77
2022/04/15 07:17:56;;;;;;;12.00;10.90;;;19.40;97.20;;;;;;1688430;29;20208;-77
2022/04/15 07:18:47;;;;;;;11.68;10.48;;;19.50;97.20;;;;;;1687771;29;20263;-77
2022/04/15 07:19:40;;;;;;;11.20;10.20;;;19.60;97.20;;;;;;1688270;29;20267;-77
2022/04/15 07:20:32;;;;;;;10.70;9.70;;;19.60;97.20;;;;;;1688312;29;20235;-77
2022/04/15 07:21:23;;;;;;;13.07;11.70;;;19.70;97.20;;;;;;1688242;29;20216;-77
2022/04/15 07:22:17;;;;;;;11.70;10.70;;;19.80;97.20;;;;;;1688251;29;20203;-78
2022/04/15 07:23:09;;;;;;;11.60;10.50;;;19.80;97.20;;;;;;1688214;29;20236;-77
2022/04/15 07:24:00;;;;;;;11.18;10.07;;;19.90;97.20;;;;;;1688287;29;20204;-77
2022/04/15 07:24:51;;;;;;;13.30;11.20;;;19.90;97.20;;;;;;1683849;29;20280;-77
2022/04/15 07:25:43;;;;;;;12.15;10.45;;;20.00;97.20;;;;;;1681791;29;20224;-77
2022/04/15 07:26:34;;;;;;;11.07;10.18;;;20.10;97.20;;;;;;1687206;29;20777;-77
2022/04/15 07:27:26;;;;;;;11.88;10.75;;;20.10;97.20;;;;;;1688196;29;20216;-77
2022/04/15 07:28:17;;;;;;;14.85;13.45;;;20.20;97.20;;;;;;1687759;29;20209;-77
2022/04/15 07:29:08;;;;;;;15.07;13.50;;;20.20;97.20;;;;;;1688084;29;20197;-77
2022/04/15 07:29:59;;;;;;;14.95;13.55;;;20.30;97.20;;;;;;1688141;29;20314;-77
2022/04/15 07:30:51;;;;;;;15.27;13.77;;;20.30;97.20;;;;;;1686244;29;20216;-78
2022/04/15 07:31:42;;;;;;;13.18;11.88;;;20.20;97.20;;;;;;1688303;29;20888;-77
2022/04/15 07:32:33;;;;;;;14.00;12.70;;;20.20;97.20;;;;;;1688281;29;20208;-78
2022/04/15 07:33:24;;;;;;;13.43;11.95;;;20.20;97.20;;;;;;1688098;29;20480;-78
2022/04/15 07:34:16;;;;;;;13.03;11.90;;;20.20;97.20;;;;;;1688113;29;20207;-77
2022/04/15 07:35:08;;;;;;;13.13;11.85;;;20.20;97.20;;;;;;1682642;29;20643;-78
2022/04/15 07:36:03;;;;;;;14.07;12.77;;;20.30;97.20;;;;;;1681746;29;20216;-77
2022/04/15 07:36:54;;;;;;;12.60;11.43;;;20.30;97.20;;;;;;1681619;29;20345;-77
2022/04/15 07:37:46;;;;;;;12.90;11.43;;;20.30;97.20;;;;;;1681597;29;20213;-77
2022/04/15 07:38:36;;;;;;;13.10;11.70;;;20.40;97.20;;;;;;1681319;29;20827;-77
2022/04/15 07:39:28;;;;;;;12.70;11.50;;;20.50;97.20;;;;;;1681627;29;20589;-78
2022/04/15 07:40:19;;;;;;;13.85;12.20;;;20.50;97.20;;;;;;1681644;29;20664;-77
2022/04/15 07:41:10;;;;;;;12.53;11.33;;;20.60;97.20;;;;;;1681837;29;20625;-77
2022/04/15 07:42:01;;;;;;;11.38;10.35;;;20.70;97.20;;;;;;1681936;29;20450;-77
2022/04/15 07:42:53;;;;;;;12.43;11.23;;;20.70;97.20;;;;;;1681802;29;20232;-78
2022/04/15 07:43:44;;;;;;;15.68;13.07;;;20.80;97.20;;;;;;1681850;29;20209;-78
2022/04/15 07:44:35;;;;;;;13.35;12.05;;;20.90;97.20;;;;;;1683510;29;20209;-77
2022/04/15 07:45:27;;;;;;;14.03;12.63;;;21.00;97.20;;;;;;1688177;29;20208;-78
2022/04/15 07:46:18;;;;;;;13.20;11.90;;;21.00;97.20;;;;;;1688096;29;20201;-77
2022/04/15 07:47:10;;;;;;;14.05;12.90;;;21.10;97.20;;;;;;1687940;29;20235;-77
2022/04/15 07:48:00;;;;;;;12.02;11.02;;;21.10;97.20;;;;;;1687980;29;20263;-77
2022/04/15 07:48:52;;;;;;;13.60;12.30;;;21.20;97.20;;;;;;1688107;29;20204;-77
2022/04/15 07:49:44;;;;;;;11.80;10.70;;;21.20;97.20;;;;;;1688171;29;20572;-78
2022/04/15 07:50:36;;;;;;;12.18;11.18;;;21.30;97.20;;;;;;1688383;29;20232;-78
2022/04/15 07:51:28;;;;;;;12.43;11.23;;;21.40;97.20;;;;;;1688196;29;20211;-78
2022/04/15 07:52:19;;;;;;;12.85;11.65;;;21.40;97.20;;;;;;1688244;29;20207;-77
2022/04/15 07:53:10;;;;;;;12.57;11.40;;;21.50;97.20;;;;;;1688192;29;20211;-78
2022/04/15 07:54:02;;;;;;;12.07;10.97;;;21.50;97.20;;;;;;1688153;29;20207;-78
2022/04/15 07:54:55;;;;;;;13.25;11.95;;;21.60;97.20;;;;;;1683721;29;20666;-78
2022/04/15 07:55:47;;;;;;;13.77;12.38;;;21.60;97.20;;;;;;1681752;29;20697;-78
2022/04/15 07:56:39;;;;;;;13.70;12.40;;;21.70;97.20;;;;;;1681589;29;20309;-78
2022/04/15 07:57:30;;;;;;;14.02;12.57;;;21.70;97.20;;;;;;1681626;29;20584;-78
2022/04/15 07:58:22;;;;;;;13.50;12.30;;;21.80;97.20;;;;;;1681446;29;20570;-78
2022/04/15 07:59:12;;;;;;;12.75;11.38;;;21.80;97.20;;;;;;1685276;29;20233;-78
2022/04/15 08:00:05;;;;;;;13.03;11.80;;;21.90;97.20;;;;;;1689548;29;20197;-78
2022/04/15 08:00:59;;;;;;;13.10;11.80;;;22.00;97.20;;;;;;1688009;29;20237;-78
2022/04/15 08:01:52;;;;;;;12.70;11.50;;;22.00;97.20;;;;;;1688040;29;20200;-78
2022/04/15 08:02:43;;;;;;;13.05;11.90;;;22.10;97.20;;;;;;1688187;29;20205;-78
2022/04/15 08:03:36;;;;;;;12.97;11.70;;;22.20;97.20;;;;;;1688025;29;20229;-77
2022/04/15 08:04:27;;;;;;;12.63;11.52;;;22.30;97.20;;;;;;1687829;29;20457;-78
2022/04/15 08:05:18;;;;;;;12.93;11.60;;;22.40;97.20;;;;;;1687238;29;20283;-77
2022/04/15 08:06:11;;;;;;;14.05;12.70;;;22.50;97.20;;;;;;1688141;29;20457;-78
2022/04/15 08:07:03;;;;;;;13.95;12.60;;;22.60;97.20;;;;;;1687972;29;20228;-78
2022/04/15 08:07:53;;;;;;;13.52;12.23;;;22.70;97.20;;;;;;1687949;29;20644;-78
2022/04/15 08:08:45;;;;;;;13.80;12.60;;;22.80;97.20;;;;;;1687727;29;20622;-78
2022/04/15 08:09:39;;;;;;;13.75;12.20;;;22.90;97.20;;;;;;1688026;29;20215;-78
2022/04/15 08:10:31;;;;;;;13.23;12.02;;;23.00;97.20;;;;;;1687944;29;20296;-78
2022/04/15 08:11:22;;;;;;;13.43;12.13;;;23.00;97.20;;;;;;1688188;29;20212;-78
2022/04/15 08:12:13;;;;;;;13.70;12.30;;;23.10;97.20;;;;;;1688068;29;20207;-78
2022/04/15 08:13:04;;;;;;;13.65;12.45;;;23.20;97.20;;;;;;1688240;29;20604;-78
2022/04/15 08:13:56;;;;;;;13.60;12.48;;;23.30;97.20;;;;;;1687916;29;20660;-78
2022/04/15 08:14:47;;;;;;;14.27;12.80;;;23.30;97.20;;;;;;1687496;29;20209;-78
2022/04/15 08:15:39;;;;;;;15.33;13.80;;;23.40;97.20;;;;;;1688059;29;20299;-78
2022/04/15 08:16:30;;;;;;;15.95;14.27;;;23.50;97.20;;;;;;1687929;29;20657;-78
2022/04/15 08:17:21;;;;;;;14.20;13.00;;;23.50;97.20;;;;;;1688115;29;20697;-78
2022/04/15 08:18:12;;;;;;;13.65;12.45;;;23.60;97.20;;;;;;1687559;29;20219;-78
2022/04/15 08:19:05;;;;;;;14.17;12.77;;;23.60;97.20;;;;;;1687850;29;20287;-78
2022/04/15 08:19:55;;;;;;;14.30;12.90;;;23.70;97.20;;;;;;1687733;29;20205;-77
2022/04/15 08:20:47;;;;;;;13.13;12.00;;;23.70;97.20;;;;;;1687920;29;20307;-77
2022/04/15 08:21:40;;;;;;;13.05;11.85;;;23.80;97.20;;;;;;1688012;29;20243;-78
2022/04/15 08:22:34;;;;;;;13.13;11.93;;;23.90;97.20;;;;;;1688728;29;20208;-77
2022/04/15 08:23:25;;;;;;;13.80;12.52;;;24.00;97.20;;;;;;1688323;29;20216;-77
2022/04/15 08:24:16;;;;;;;13.60;12.40;;;24.10;97.20;;;;;;1687912;29;20205;-77
2022/04/15 08:25:08;;;;;;;13.35;12.25;;;24.20;97.20;;;;;;1687285;29;20201;-78
2022/04/15 08:25:59;;;;;;;12.73;11.63;;;24.30;96.70;;;;;;1687943;29;20204;-78
2022/04/15 08:26:54;;;;;;;12.68;11.57;;;24.30;96.40;;;;;;1688015;29;20208;-78
2022/04/15 08:27:46;;;;;;;13.70;12.30;;;24.40;96.60;;;;;;1690398;29;20685;-77
2022/04/15 08:28:37;;;;;;;14.05;12.57;;;24.40;95.80;;;;;;1690623;29;20254;-77
2022/04/15 08:29:29;;;;;;;14.90;13.50;;;24.50;95.50;;;;;;1687482;29;20264;-77
2022/04/15 08:30:20;;;;;;;13.95;12.75;;;24.50;95.20;;;;;;1687677;29;20638;-77
2022/04/15 08:31:11;;;;;;;14.23;12.90;;;24.50;95.30;;;;;;1687898;29;20211;-77
2022/04/15 08:32:02;;;;;;;14.40;13.15;;;24.50;95.20;;;;;;1687977;29;20249;-78
2022/04/15 08:32:54;;;;;;;12.75;11.57;;;24.60;95.50;;;;;;1687888;29;20659;-78
2022/04/15 08:33:46;;;;;;;12.05;11.00;;;24.70;95.60;;;;;;1687711;29;20271;-78
2022/04/15 08:34:38;;;;;;;15.38;10.93;;;24.80;96.00;;;;;;1687392;29;20212;-77
2022/04/15 08:35:29;;;;;;;11.90;10.90;;;24.90;96.20;;;;;;1688054;29;20754;-77
2022/04/15 08:36:21;;;;;;;12.87;11.67;;;25.10;96.10;;;;;;1687858;29;20650;-77
2022/04/15 08:37:13;;;;;;;12.65;11.55;;;25.20;95.80;;;;;;1687790;29;20469;-78
2022/04/15 08:38:06;;;;;;;13.40;12.18;;;25.30;95.10;;;;;;1687571;29;20719;-77
2022/04/15 08:38:58;;;;;;;13.40;12.20;;;25.40;94.30;;;;;;1687687;29;20695;-78
2022/04/15 08:39:49;;;;;;;12.30;11.25;;;25.50;93.90;;;;;;1687483;29;20209;-77
2022/04/15 08:40:47;;;;;;;12.73;11.20;;;25.60;93.80;;;;;;1687685;29;20252;-77
2022/04/15 08:41:43;;;;;;;14.65;13.25;;;25.60;93.60;;;;;;1687855;29;20267;-78
2022/04/15 08:42:35;;;;;;;14.38;13.07;;;25.70;93.00;;;;;;1687804;29;20307;-78
2022/04/15 08:43:29;;;;;;;13.95;12.63;;;25.70;92.70;;;;;;1687755;29;20239;-77
2022/04/15 08:44:21;;;;;;;13.57;12.18;;;25.80;92.80;;;;;;1687831;29;20283;-78
2022/04/15 08:45:14;;;;;;;10.70;9.70;;;25.90;92.70;;;;;;1682557;29;20624;-78
2022/04/15 08:46:05;;;;;;;13.52;12.23;;;25.90;92.80;;;;;;1681406;29;20216;-78
2022/04/15 08:46:58;;;;;;;12.55;11.45;;;26.00;92.80;;;;;;1681384;29;20259;-78
2022/04/15 08:47:49;;;;;;;13.55;12.27;;;26.00;92.70;;;;;;1681414;29;20243;-77
2022/04/15 08:48:41;;;;;;;13.60;11.60;;;26.10;92.50;;;;;;1681189;29;20201;-78
2022/04/15 08:49:34;;;;;;;10.13;9.23;;;26.20;92.20;;;;;;1681074;29;20209;-78
2022/04/15 08:50:26;;;;;;;15.07;13.57;;;26.30;92.40;;;;;;1681273;29;20201;-78
2022/04/15 08:51:17;;;;;;;11.65;10.65;;;26.30;91.80;;;;;;1681463;29;20209;-76
2022/04/15 08:52:11;;;;;;;11.40;10.27;;;26.40;91.70;;;;;;1681754;29;20233;-78
2022/04/15 08:53:04;;;;;;;13.15;11.98;;;26.40;92.00;;;;;;1681492;29;20213;-78
2022/04/15 08:53:55;;;;;;;14.45;13.05;;;26.50;91.50;;;;;;1682007;29;20292;-78
2022/04/15 08:54:46;;;;;;;14.68;13.25;;;26.50;90.40;;;;;;1682565;29;20216;-77
2022/04/15 08:55:38;;;;;;;13.63;12.33;;;26.50;89.60;;;;;;1687871;29;20215;-78
2022/04/15 08:56:29;;;;;;;12.98;11.63;;;26.50;89.50;;;;;;1687670;29;20205;-78
2022/04/15 08:57:21;;;;;;;13.25;11.93;;;26.50;89.80;;;;;;1687601;29;20208;-78
2022/04/15 08:58:12;;;;;;;10.85;9.95;;;26.50;90.00;;;;;;1687476;29;20267;-78
2022/04/15 08:59:04;;;;;;;12.23;10.97;;;26.60;90.50;;;;;;1687568;29;20256;-77
2022/04/15 08:59:54;;;;;;;10.82;9.82;;;26.70;90.30;;;;;;1687924;29;20208;-78
2022/04/15 09:00:46;;;;;;;12.27;10.37;;;26.80;90.30;;;;;;1687867;29;20800;-78
2022/04/15 09:01:38;;;;;;;10.75;9.75;;;26.90;90.10;;;;;;1687949;29;20700;-78
2022/04/15 09:02:31;;;;;;;11.20;10.20;;;27.00;89.80;;;;;;1688584;29;20224;-78
2022/04/15 09:03:22;;;;;;;11.35;10.07;;;27.20;89.40;;;;;;1688067;29;20567;-78
2022/04/15 09:04:14;;;;;;;10.50;9.60;;;27.30;89.20;;;;;;1687907;29;20263;-78
2022/04/15 09:05:07;;;;;;;12.20;11.10;;;27.40;88.90;;;;;;1684642;29;20288;-77
2022/04/15 09:05:58;;;;;;;11.00;10.02;;;27.50;88.70;;;;;;1681827;29;20201;-79
2022/04/15 09:06:56;;;;;;;11.13;10.10;;;27.60;88.50;;;;;;1681537;29;20208;-77
2022/04/15 09:07:46;;;;;;;11.30;10.40;;;27.80;88.10;;;;;;1686025;29;21084;-77
2022/04/15 09:08:59;;;;;;;12.00;10.80;;;27.90;87.90;;;;;;1687287;29;20736;-77
2022/04/15 09:09:55;;;;;;;11.93;10.93;;;28.00;87.70;;;;;;1687373;29;20216;-77
2022/04/15 09:10:56;;;;;;;14.43;13.13;;;28.10;87.60;;;;;;1685391;29;20647;-77
2022/04/15 09:11:49;;;;;;;14.35;13.05;;;28.20;86.10;;;;;;1687715;29;20213;-77
2022/04/15 09:12:42;;;;;;;13.40;12.20;;;28.30;85.90;;;;;;1687567;29;20268;-77
2022/04/15 09:13:34;;;;;;;12.85;11.75;;;28.30;85.70;;;;;;1687385;29;20213;-77
2022/04/15 09:14:26;;;;;;;14.13;12.93;;;28.40;85.80;;;;;;1687469;29;20610;-77
2022/04/15 09:15:17;;;;;;;14.05;12.82;;;28.50;85.80;;;;;;1682326;29;20209;-77
2022/04/15 09:16:08;;;;;;;13.53;12.23;;;28.50;85.20;;;;;;1681019;29;20237;-77
2022/04/15 09:17:03;;;;;;;13.30;12.10;;;28.50;85.30;;;;;;1680418;29;20206;-77
2022/04/15 09:17:55;;;;;;;12.32;11.25;;;28.60;85.50;;;;;;1681133;29;20204;-77
2022/04/15 09:18:46;;;;;;;13.65;12.45;;;29.00;85.20;;;;;;1680749;29;20214;-77
2022/04/15 09:19:40;;;;;;;12.57;11.47;;;29.20;84.70;;;;;;1680882;29;20202;-77
2022/04/15 09:20:32;;;;;;;14.27;12.88;;;29.20;84.60;;;;;;1680850;29;20488;-78
2022/04/15 09:21:25;;;;;;;13.98;12.70;;;29.10;84.40;;;;;;1681051;29;20201;-77
2022/04/15 09:22:17;;;;;;;14.93;13.55;;;28.90;84.20;;;;;;1681013;29;20209;-77
2022/04/15 09:23:10;;;;;;;14.40;12.98;;;28.60;84.40;;;;;;1680965;29;20638;-77
2022/04/15 09:24:03;;;;;;;12.65;11.55;;;28.30;84.60;;;;;;1680992;29;20260;-77
2022/04/15 09:24:54;;;;;;;12.60;11.52;;;28.00;85.20;;;;;;1682095;29;20209;-77
2022/04/15 09:25:47;;;;;;;12.02;10.93;;;27.70;85.30;;;;;;1687236;29;20212;-77
2022/04/15 09:26:44;;;;;;;13.27;12.07;;;27.40;85.90;;;;;;1687432;29;20668;-77